createdAt,value
2023-03-04T00:01:21.704Z,14.07
2023-03-04T00:03:49.565Z,14.40
2023-03-04T00:06:18.785Z,15.07
2023-03-04T00:08:46.612Z,17.30
2023-03-04T00:11:14.487Z,13.63
2023-03-04T00:13:42.351Z,14.77
2023-03-04T00:16:10.209Z,14.13
2023-03-04T00:18:38.059Z,14.17
2023-03-04T00:21:06.353Z,14.03
2023-03-04T00:23:35.545Z,15.17
2023-03-04T00:26:03.415Z,16.30
2023-03-04T00:28:31.140Z,9.77
2023-03-04T00:30:58.975Z,14.93
2023-03-04T00:33:26.748Z,11.30
2023-03-04T00:35:54.519Z,15.07
2023-03-04T00:38:22.295Z,15.93
2023-03-04T00:40:51.722Z,14.43
2023-03-04T00:43:19.916Z,15.00
2023-03-04T00:45:47.841Z,13.13
2023-03-04T00:48:16.429Z,15.30
2023-03-04T00:50:44.933Z,13.90
2023-03-04T00:53:12.843Z,16.00
2023-03-04T00:55:40.641Z,14.17
2023-03-04T00:58:10.016Z,13.80
2023-03-04T01:00:37.880Z,14.23
2023-03-04T01:03:05.696Z,13.93
2023-03-04T01:05:35.879Z,19.00
2023-03-04T01:08:03.741Z,12.77
2023-03-04T01:10:31.664Z,13.50
2023-03-04T01:12:59.935Z,15.97
2023-03-04T01:15:29.700Z,14.10
2023-03-04T01:17:58.094Z,13.63
2023-03-04T01:20:26.348Z,14.33
2023-03-04T01:22:54.146Z,15.83
2023-03-04T01:25:22.118Z,16.57
2023-03-04T01:27:50.012Z,15.57
2023-03-04T01:30:21.111Z,17.93
2023-03-04T01:32:50.413Z,14.13
2023-03-04T01:35:18.317Z,13.13
2023-03-04T01:37:46.099Z,12.13
2023-03-04T01:40:15.079Z,16.30
2023-03-04T01:42:43.042Z,15.33
2023-03-04T01:45:15.488Z,20.50
2023-03-04T01:47:48.448Z,17.13
2023-03-04T01:50:24.718Z,15.17
2023-03-04T01:52:52.600Z,11.03
2023-03-04T01:55:23.407Z,11.40
2023-03-04T01:57:53.282Z,15.20
2023-03-04T02:00:28.350Z,18.10
2023-03-04T02:03:00.168Z,17.80
2023-03-04T02:05:30.476Z,15.70
2023-03-04T02:08:01.908Z,12.63
2023-03-04T02:10:29.679Z,13.70
2023-03-04T02:12:57.721Z,14.80
2023-03-04T02:15:25.894Z,11.10
2023-03-04T02:17:53.725Z,21.23
2023-03-04T02:20:35.554Z,12.87
2023-03-04T02:23:10.744Z,16.30
2023-03-04T02:25:44.562Z,15.43
2023-03-04T02:28:13.929Z,15.07
2023-03-04T02:30:42.587Z,17.27
2023-03-04T02:33:16.855Z,15.23
2023-03-04T02:35:44.876Z,17.50
2023-03-04T02:38:13.522Z,16.23
2023-03-04T02:40:45.019Z,20.47
2023-03-04T02:43:14.317Z,14.93
2023-03-04T02:45:44.976Z,10.40
2023-03-04T02:48:14.526Z,16.27
2023-03-04T02:50:47.328Z,17.33
2023-03-04T02:53:15.349Z,19.03
2023-03-04T02:55:43.805Z,15.93
2023-03-04T02:58:14.978Z,12.83
2023-03-04T03:00:43.702Z,20.80
2023-03-04T03:03:12.421Z,14.43
2023-03-04T03:05:40.908Z,12.60
2023-03-04T03:08:09.586Z,12.03
2023-03-04T03:10:37.696Z,15.73
2023-03-04T03:13:07.745Z,16.13
2023-03-04T03:15:42.068Z,14.50
2023-03-04T03:18:10.922Z,16.80
2023-03-04T03:20:39.076Z,10.53
2023-03-04T03:23:06.953Z,11.47
2023-03-04T03:25:34.839Z,22.17
2023-03-04T03:28:02.675Z,18.90
2023-03-04T03:30:30.523Z,16.57
2023-03-04T03:32:59.734Z,13.60
2023-03-04T03:35:28.393Z,13.20
2023-03-04T03:37:56.296Z,13.13
2023-03-04T03:40:24.181Z,18.40
2023-03-04T03:42:51.977Z,11.50
2023-03-04T03:45:19.814Z,12.17
2023-03-04T03:47:47.572Z,14.53
2023-03-04T03:50:17.414Z,11.00
2023-03-04T03:52:45.260Z,11.80
2023-03-04T03:55:14.235Z,15.67
2023-03-04T03:57:42.292Z,17.90
2023-03-04T04:00:11.902Z,12.30
2023-03-04T04:02:43.196Z,12.03
2023-03-04T04:05:11.848Z,10.93
2023-03-04T04:07:41.778Z,12.30
2023-03-04T04:10:11.700Z,12.87
2023-03-04T04:12:39.812Z,12.40
2023-03-04T04:15:09.484Z,11.03
2023-03-04T04:17:37.311Z,14.67
2023-03-04T04:20:05.973Z,12.47
2023-03-04T04:22:33.754Z,9.93
2023-03-04T04:25:03.262Z,6.13
2023-03-04T04:27:31.067Z,13.83
2023-03-04T04:29:59.379Z,10.83
2023-03-04T04:32:27.385Z,10.37
2023-03-04T04:34:55.247Z,10.93
2023-03-04T04:37:23.104Z,8.93
2023-03-04T04:39:51.838Z,6.57
2023-03-04T04:42:21.210Z,7.97
2023-03-04T04:44:49.004Z,11.13
2023-03-04T04:47:16.873Z,14.23
2023-03-04T04:49:44.949Z,10.33
2023-03-04T04:52:12.877Z,12.33
2023-03-04T04:54:41.417Z,12.20
2023-03-04T04:57:09.249Z,12.97
2023-03-04T04:59:38.402Z,11.40
2023-03-04T05:02:06.167Z,10.30
2023-03-04T05:04:33.918Z,8.80
2023-03-04T05:07:02.108Z,10.67
2023-03-04T05:09:29.923Z,9.17
2023-03-04T05:11:57.787Z,11.00
2023-03-04T05:14:25.645Z,11.33
2023-03-04T05:16:54.942Z,11.37
2023-03-04T05:19:22.784Z,10.03
2023-03-04T05:21:50.609Z,6.90
2023-03-04T05:24:18.948Z,12.00
2023-03-04T05:26:46.891Z,10.93
2023-03-04T05:29:14.959Z,10.40
2023-03-04T05:31:42.692Z,12.23
2023-03-04T05:34:12.155Z,11.83
2023-03-04T05:36:39.900Z,6.43
2023-03-04T05:39:07.757Z,9.63
2023-03-04T05:41:35.643Z,8.43
2023-03-04T05:44:03.612Z,12.50
2023-03-04T05:46:33.543Z,10.07
2023-03-04T05:49:01.753Z,10.47
2023-03-04T05:51:30.964Z,14.67
2023-03-04T05:53:58.896Z,12.40
2023-03-04T05:56:26.860Z,10.40
2023-03-04T05:58:58.110Z,18.03
2023-03-04T06:01:26.177Z,12.47
2023-03-04T06:03:54.131Z,13.07
2023-03-04T06:06:22.095Z,10.80
2023-03-04T06:08:51.341Z,10.13
2023-03-04T06:11:19.335Z,9.00
2023-03-04T06:13:47.348Z,13.00
2023-03-04T06:16:15.279Z,8.40
2023-03-04T06:18:43.034Z,12.07
2023-03-04T06:21:10.782Z,17.90
2023-03-04T06:23:38.670Z,12.17
2023-03-04T06:26:10.075Z,13.57
2023-03-04T06:28:37.967Z,11.43
2023-03-04T06:31:06.675Z,9.17
2023-03-04T06:33:34.839Z,12.40
2023-03-04T06:36:02.965Z,8.37
2023-03-04T06:38:30.840Z,7.40
2023-03-04T06:40:58.668Z,7.43
2023-03-04T06:43:27.968Z,11.27
2023-03-04T06:45:55.838Z,8.93
2023-03-04T06:48:23.816Z,13.60
2023-03-04T06:50:51.610Z,11.70
2023-03-04T06:53:19.461Z,10.93
2023-03-04T06:55:48.063Z,7.70
2023-03-04T06:58:17.452Z,14.10
2023-03-04T07:00:46.857Z,8.80
2023-03-04T07:03:14.861Z,13.90
2023-03-04T07:05:44.224Z,9.43
2023-03-04T07:08:12.695Z,11.20
2023-03-04T07:10:40.892Z,15.07
2023-03-04T07:13:08.941Z,7.70
2023-03-04T07:15:37.335Z,11.50
2023-03-04T07:18:06.612Z,13.23
2023-03-04T07:20:34.518Z,12.70
2023-03-04T07:23:02.302Z,14.10
2023-03-04T07:25:30.342Z,15.20
2023-03-04T07:27:58.034Z,12.30
2023-03-04T07:30:25.839Z,10.03
2023-03-04T07:32:54.364Z,11.03
2023-03-04T07:35:23.675Z,11.43
2023-03-04T07:37:51.612Z,15.57
2023-03-04T07:40:19.888Z,9.77
2023-03-04T07:42:51.180Z,9.50
2023-03-04T07:45:19.231Z,12.00
2023-03-04T07:47:47.459Z,14.13
2023-03-04T07:50:17.901Z,15.97
2023-03-04T07:52:50.947Z,12.60
2023-03-04T07:55:19.353Z,15.57
2023-03-04T07:57:49.178Z,14.07
2023-03-04T08:00:18.622Z,9.37
2023-03-04T08:02:46.589Z,8.93
2023-03-04T08:05:14.616Z,15.37
2023-03-04T08:07:42.696Z,14.83
2023-03-04T08:10:13.184Z,11.83
2023-03-04T08:12:41.047Z,12.67
2023-03-04T08:15:10.233Z,12.60
2023-03-04T08:17:38.182Z,10.93
2023-03-04T08:20:06.958Z,11.33
2023-03-04T08:22:34.809Z,11.03
2023-03-04T08:25:02.629Z,14.77
2023-03-04T08:27:32.088Z,11.77
2023-03-04T08:29:59.883Z,14.90
2023-03-04T08:32:28.338Z,13.83
2023-03-04T08:34:57.051Z,16.13
2023-03-04T08:37:25.105Z,16.13
2023-03-04T08:39:53.039Z,8.90
2023-03-04T08:42:21.112Z,7.73
2023-03-04T08:44:50.436Z,8.77
2023-03-04T08:47:18.417Z,8.07
2023-03-04T08:49:46.554Z,11.40
2023-03-04T08:52:14.413Z,10.10
2023-03-04T08:54:42.235Z,9.30
2023-03-04T08:57:10.264Z,7.57
2023-03-04T08:59:38.646Z,10.17
2023-03-04T09:02:08.228Z,9.23
2023-03-04T09:04:36.663Z,9.47
2023-03-04T09:07:04.802Z,10.60
2023-03-04T09:09:32.825Z,10.80
2023-03-04T09:12:00.807Z,7.43
2023-03-04T09:14:28.700Z,8.70
2023-03-04T09:16:56.523Z,7.30
2023-03-04T09:19:27.708Z,8.87
2023-03-04T09:21:56.726Z,9.93
2023-03-04T09:24:24.579Z,9.37
2023-03-04T09:26:52.782Z,8.63
2023-03-04T09:29:20.868Z,10.03
2023-03-04T09:31:48.803Z,7.60
2023-03-04T09:34:17.173Z,10.53
2023-03-04T09:36:46.469Z,7.00
2023-03-04T09:39:14.349Z,5.57
2023-03-04T09:41:44.764Z,8.27
2023-03-04T09:44:24.438Z,6.50
2023-03-04T09:46:54.112Z,8.50
2023-03-04T09:49:23.305Z,8.63
2023-03-04T09:52:02.132Z,8.60
2023-03-04T09:54:49.382Z,6.50
2023-03-04T09:57:25.115Z,7.20
2023-03-04T10:00:06.031Z,4.90
2023-03-04T10:02:47.158Z,5.90
2023-03-04T10:05:19.773Z,5.27
2023-03-04T10:07:54.652Z,8.00
2023-03-04T10:10:27.649Z,8.27
2023-03-04T10:12:58.521Z,8.80
2023-03-04T10:15:35.250Z,4.30
2023-03-04T10:18:13.583Z,7.63
2023-03-04T10:20:52.976Z,7.80
2023-03-04T10:23:25.765Z,5.93
2023-03-04T10:25:54.945Z,9.40
2023-03-04T10:28:27.078Z,9.20
2023-03-04T10:31:01.263Z,4.73
2023-03-04T10:33:32.054Z,3.43
2023-03-04T10:36:03.776Z,5.47
2023-03-04T10:38:36.844Z,4.53
2023-03-04T10:41:13.863Z,4.20
2023-03-04T10:43:44.108Z,3.93
2023-03-04T10:46:12.552Z,3.57
2023-03-04T10:48:43.424Z,3.30
2023-03-04T10:51:15.036Z,7.77
2023-03-04T10:53:44.921Z,6.67
2023-03-04T10:56:34.811Z,6.83
2023-03-04T10:59:40.737Z,4.60
2023-03-04T11:02:18.285Z,4.33
2023-03-04T11:04:53.559Z,5.80
2023-03-04T11:07:23.502Z,6.73
2023-03-04T11:09:53.653Z,4.80
2023-03-04T11:12:35.225Z,7.53
2023-03-04T11:15:04.523Z,5.43
2023-03-04T11:17:45.299Z,4.73
2023-03-04T11:20:18.981Z,6.40
2023-03-04T11:22:48.098Z,3.63
2023-03-04T11:25:27.654Z,4.23
2023-03-04T11:27:58.881Z,2.40
2023-03-04T11:30:44.593Z,8.53
2023-03-04T11:33:22.299Z,7.27
2023-03-04T11:36:00.585Z,4.63
2023-03-04T11:38:33.882Z,3.73
2023-03-04T11:41:06.505Z,3.13
2023-03-04T11:43:41.009Z,4.37
2023-03-04T11:46:43.849Z,4.47
2023-03-04T11:49:50.117Z,3.73
2023-03-04T11:52:31.137Z,6.80
2023-03-04T11:55:13.977Z,7.03
2023-03-04T11:57:54.585Z,4.37
2023-03-04T12:00:37.115Z,3.17
2023-03-04T12:03:30.950Z,6.10
2023-03-04T12:06:07.596Z,3.03
2023-03-04T12:08:55.646Z,4.60
2023-03-04T12:11:35.071Z,3.67
2023-03-04T12:14:20.970Z,4.67
2023-03-04T12:17:35.141Z,4.90
2023-03-04T12:20:37.173Z,4.17
2023-03-04T12:23:19.296Z,6.80
2023-03-04T12:25:57.990Z,6.13
2023-03-04T12:28:43.967Z,4.67
2023-03-04T12:31:30.736Z,4.93
2023-03-04T12:34:15.233Z,4.50
2023-03-04T12:36:53.164Z,6.73
2023-03-04T12:39:31.015Z,3.63
2023-03-04T12:42:08.471Z,5.13
2023-03-04T12:44:44.532Z,4.47
2023-03-04T12:47:30.098Z,2.50
2023-03-04T12:50:21.107Z,5.07
2023-03-04T12:53:00.865Z,2.67
2023-03-04T12:55:38.120Z,6.07
2023-03-04T12:58:07.991Z,4.27
2023-03-04T13:00:47.970Z,4.60
2023-03-04T13:03:22.934Z,3.53
2023-03-04T13:06:07.882Z,5.87
2023-03-04T13:08:47.737Z,5.03
2023-03-04T13:11:47.225Z,4.43
2023-03-04T13:14:33.176Z,3.33
2023-03-04T13:17:03.555Z,4.17
2023-03-04T13:19:48.446Z,5.43
2023-03-04T13:22:30.970Z,5.07
2023-03-04T13:25:00.151Z,3.97
2023-03-04T13:27:49.254Z,4.00
2023-03-04T13:30:42.355Z,4.67
2023-03-04T13:33:45.787Z,4.23
2023-03-04T13:37:00.228Z,4.30
2023-03-04T13:39:33.279Z,4.30
2023-03-04T13:42:02.288Z,5.20
2023-03-04T13:45:05.912Z,2.97
2023-03-04T13:47:49.748Z,3.17
2023-03-04T13:50:40.160Z,4.57
2023-03-04T13:53:41.104Z,3.80
2023-03-04T13:56:32.401Z,3.70
2023-03-04T13:59:28.545Z,4.07
2023-03-04T14:02:00.155Z,5.67
2023-03-04T14:04:32.071Z,4.53
2023-03-04T14:07:02.156Z,4.43
2023-03-04T14:09:32.060Z,5.40
2023-03-04T14:12:05.363Z,3.50
2023-03-04T14:14:44.733Z,4.40
2023-03-04T14:17:20.785Z,2.80
2023-03-04T14:19:52.503Z,4.87
2023-03-04T14:22:25.968Z,3.70
2023-03-04T14:24:59.880Z,3.33
2023-03-04T14:27:30.639Z,3.53
2023-03-04T14:29:59.916Z,2.97
2023-03-04T14:32:30.374Z,2.90
2023-03-04T14:35:03.822Z,3.83
2023-03-04T14:37:39.348Z,5.67
2023-03-04T14:40:09.152Z,5.33
2023-03-04T14:42:47.201Z,3.33
2023-03-04T14:45:18.583Z,4.90
2023-03-04T14:47:48.691Z,7.47
2023-03-04T14:50:19.248Z,5.10
2023-03-04T14:52:51.609Z,3.63
2023-03-04T14:55:23.276Z,4.17
2023-03-04T14:57:58.726Z,5.80
2023-03-04T15:00:31.378Z,4.03
2023-03-04T15:03:01.193Z,6.97
2023-03-04T15:05:31.599Z,6.67
2023-03-04T15:08:01.614Z,7.80
2023-03-04T15:10:32.024Z,11.57
2023-03-04T15:13:03.977Z,10.10
2023-03-04T15:15:39.902Z,18.23
2023-03-04T15:18:22.938Z,21.23
2023-03-04T15:20:56.150Z,14.80
2023-03-04T15:23:24.086Z,12.40
2023-03-04T15:25:54.599Z,10.87
2023-03-04T15:28:24.782Z,8.80
2023-03-04T15:30:53.157Z,7.77
2023-03-04T15:33:21.418Z,8.10
2023-03-04T15:35:54.510Z,11.27
2023-03-04T15:38:22.631Z,9.20
2023-03-04T15:40:53.282Z,14.37
2023-03-04T15:43:24.541Z,11.10
2023-03-04T15:45:54.406Z,13.57
2023-03-04T15:48:22.669Z,16.33
2023-03-04T15:50:55.281Z,13.17
2023-03-04T15:53:29.682Z,16.33
2023-03-04T15:55:57.646Z,12.80
2023-03-04T15:58:28.164Z,14.30
2023-03-04T16:00:56.265Z,10.23
2023-03-04T16:03:24.127Z,17.83
2023-03-04T16:05:53.465Z,13.53
2023-03-04T16:08:24.871Z,11.23
2023-03-04T16:10:53.304Z,17.93
2023-03-04T16:13:23.920Z,9.43
2023-03-04T16:15:53.434Z,8.67
2023-03-04T16:18:21.729Z,11.10
2023-03-04T16:20:50.938Z,9.73
2023-03-04T16:23:22.275Z,9.53
2023-03-04T16:25:53.758Z,12.43
2023-03-04T16:28:21.656Z,11.63
2023-03-04T16:30:50.199Z,8.93
2023-03-04T16:33:19.413Z,13.77
2023-03-04T16:35:47.703Z,15.27
2023-03-04T16:38:23.203Z,9.43
2023-03-04T16:40:51.008Z,13.17
2023-03-04T16:43:18.799Z,11.57
2023-03-04T16:45:46.743Z,13.90
2023-03-04T16:48:14.497Z,9.70
2023-03-04T16:50:44.832Z,12.33
2023-03-04T16:53:30.512Z,10.53
2023-03-04T16:55:59.581Z,8.40
2023-03-04T16:58:27.679Z,9.10
2023-03-04T17:00:56.126Z,7.23
2023-03-04T17:03:24.292Z,9.00
2023-03-04T17:05:53.572Z,8.00
2023-03-04T17:08:21.477Z,7.77
2023-03-04T17:10:50.494Z,8.30
2023-03-04T17:13:18.335Z,7.77
2023-03-04T17:15:46.959Z,8.60
2023-03-04T17:18:15.147Z,8.23
2023-03-04T17:20:43.032Z,8.30
2023-03-04T17:23:12.222Z,9.70
2023-03-04T17:25:40.141Z,7.27
2023-03-04T17:28:07.990Z,8.20
2023-03-04T17:30:35.795Z,9.13
2023-03-04T17:33:03.671Z,4.20
2023-03-04T17:35:31.486Z,6.10
2023-03-04T17:37:59.992Z,9.83
2023-03-04T17:40:29.813Z,9.10
2023-03-04T17:42:57.637Z,5.93
2023-03-04T17:45:25.386Z,9.93
2023-03-04T17:47:53.132Z,9.93
2023-03-04T17:50:21.407Z,9.03
2023-03-04T17:52:49.223Z,10.13
2023-03-04T17:55:17.048Z,8.17
2023-03-04T17:57:46.449Z,4.87
2023-03-04T18:00:15.588Z,10.07
2023-03-04T18:02:43.515Z,8.97
2023-03-04T18:05:11.602Z,8.23
2023-03-04T18:07:39.514Z,7.50
2023-03-04T18:10:08.559Z,8.50
2023-03-04T18:12:36.351Z,8.87
2023-03-04T18:15:06.645Z,8.83
2023-03-04T18:17:34.453Z,9.97
2023-03-04T18:20:02.782Z,9.10
2023-03-04T18:22:31.718Z,8.50
2023-03-04T18:24:59.459Z,11.10
2023-03-04T18:27:27.971Z,12.37
2023-03-04T18:29:56.416Z,8.67
2023-03-04T18:32:25.908Z,8.23
2023-03-04T18:34:53.904Z,7.53
2023-03-04T18:37:21.981Z,12.00
2023-03-04T18:39:49.865Z,8.20
2023-03-04T18:42:18.046Z,12.40
2023-03-04T18:44:45.906Z,5.47
2023-03-04T18:47:14.335Z,10.23
2023-03-04T18:49:45.406Z,6.80
2023-03-04T18:52:13.380Z,7.13
2023-03-04T18:54:41.414Z,7.90
2023-03-04T18:57:11.462Z,6.60
2023-03-04T18:59:44.260Z,9.43
2023-03-04T19:02:18.585Z,8.70
2023-03-04T19:04:48.854Z,10.93
2023-03-04T19:07:16.998Z,7.50
2023-03-04T19:09:44.928Z,6.00
2023-03-04T19:12:12.931Z,8.37
2023-03-04T19:14:41.029Z,8.67
2023-03-04T19:17:08.822Z,6.53
2023-03-04T19:19:37.356Z,13.30
2023-03-04T19:22:06.925Z,13.00
2023-03-04T19:24:34.812Z,9.03
2023-03-04T19:27:02.802Z,11.20
2023-03-04T19:29:30.888Z,10.37
2023-03-04T19:31:58.840Z,9.43
2023-03-04T19:34:26.926Z,10.73
2023-03-04T19:36:54.831Z,7.27
2023-03-04T19:39:24.087Z,7.00
2023-03-04T19:41:51.926Z,9.07
2023-03-04T19:44:19.852Z,6.53
2023-03-04T19:46:47.806Z,9.13
2023-03-04T19:49:15.659Z,34.47
2023-03-04T19:51:43.695Z,9.80
2023-03-04T19:54:11.608Z,9.03
2023-03-04T19:56:40.991Z,8.63
2023-03-04T19:59:09.991Z,10.07
2023-03-04T20:01:38.640Z,8.23
2023-03-04T20:04:09.384Z,11.10
2023-03-04T20:06:38.446Z,11.57
2023-03-04T20:09:07.160Z,12.67
2023-03-04T20:11:41.498Z,12.30
2023-03-04T20:14:20.093Z,12.27
2023-03-04T20:16:48.087Z,14.33
2023-03-04T20:19:16.071Z,15.53
2023-03-04T20:21:43.861Z,11.17
2023-03-04T20:24:11.867Z,12.57
2023-03-04T20:26:40.050Z,13.90
2023-03-04T20:29:07.812Z,9.83
2023-03-04T20:31:38.845Z,7.83
2023-03-04T20:34:08.439Z,11.53
2023-03-04T20:36:38.526Z,8.93
2023-03-04T20:39:18.319Z,12.93
2023-03-04T20:41:55.301Z,13.80
2023-03-04T20:44:23.232Z,14.20
2023-03-04T20:46:53.550Z,14.67
2023-03-04T20:49:24.106Z,11.53
2023-03-04T20:51:53.177Z,17.10
2023-03-04T20:54:21.360Z,15.60
2023-03-04T20:56:49.589Z,11.60
2023-03-04T20:59:18.200Z,13.20
2023-03-04T21:01:47.894Z,13.13
2023-03-04T21:04:17.798Z,16.73
2023-03-04T21:06:47.444Z,16.37
2023-03-04T21:09:18.245Z,10.80
2023-03-04T21:11:46.391Z,12.63
2023-03-04T21:14:16.620Z,13.37
2023-03-04T21:16:44.653Z,11.23
2023-03-04T21:19:18.329Z,8.87
2023-03-04T21:21:47.422Z,14.30
2023-03-04T21:24:16.717Z,12.83
2023-03-04T21:26:47.386Z,9.60
2023-03-04T21:29:16.172Z,14.20
2023-03-04T21:31:46.696Z,10.90
2023-03-04T21:34:19.967Z,11.53
2023-03-04T21:36:47.969Z,14.27
2023-03-04T21:39:17.846Z,13.93
2023-03-04T21:41:46.298Z,13.93
2023-03-04T21:44:22.986Z,12.53
2023-03-04T21:46:57.037Z,11.47
2023-03-04T21:49:27.127Z,11.93
2023-03-04T21:51:55.274Z,9.10
2023-03-04T21:54:23.267Z,12.40
2023-03-04T21:56:51.211Z,13.03
2023-03-04T21:59:19.399Z,7.87
2023-03-04T22:01:47.298Z,12.03
2023-03-04T22:04:15.343Z,10.10
2023-03-04T22:06:44.509Z,11.27
2023-03-04T22:09:13.296Z,12.87
2023-03-04T22:11:41.402Z,9.83
2023-03-04T22:14:09.280Z,10.27
2023-03-04T22:16:48.798Z,13.93
2023-03-04T22:19:22.313Z,8.70
2023-03-04T22:21:52.373Z,11.37
2023-03-04T22:24:20.950Z,8.60
2023-03-04T22:26:48.854Z,9.00
2023-03-04T22:29:16.744Z,7.57
2023-03-04T22:31:44.738Z,14.17
2023-03-04T22:34:14.881Z,9.10
2023-03-04T22:36:44.678Z,8.37
2023-03-04T22:39:16.289Z,9.53
2023-03-04T22:41:44.408Z,13.27
2023-03-04T22:44:14.130Z,9.03
2023-03-04T22:46:42.596Z,14.83
2023-03-04T22:49:12.928Z,15.73
2023-03-04T22:51:42.398Z,8.43
2023-03-04T22:54:13.974Z,7.47
2023-03-04T22:56:41.907Z,10.37
2023-03-04T22:59:09.789Z,8.67
2023-03-04T23:01:37.763Z,10.90
2023-03-04T23:04:06.039Z,9.03
2023-03-04T23:06:33.819Z,9.53
2023-03-04T23:09:01.943Z,14.57
2023-03-04T23:11:35.177Z,12.23
2023-03-04T23:14:06.820Z,10.93
2023-03-04T23:16:37.442Z,8.33
2023-03-04T23:19:05.860Z,10.80
2023-03-04T23:21:34.667Z,9.17
2023-03-04T23:24:03.812Z,11.33
2023-03-04T23:26:35.971Z,9.63
2023-03-04T23:29:06.091Z,7.33
2023-03-04T23:31:35.730Z,11.00
2023-03-04T23:34:05.293Z,9.20
2023-03-04T23:36:34.932Z,9.37
2023-03-04T23:39:04.291Z,10.13
2023-03-04T23:41:34.565Z,12.03
2023-03-04T23:44:03.116Z,10.07
2023-03-04T23:46:31.220Z,9.93
2023-03-04T23:48:59.414Z,7.80
2023-03-04T23:51:30.017Z,9.37
2023-03-04T23:53:58.183Z,7.33
2023-03-04T23:56:28.707Z,10.57
2023-03-04T23:58:59.304Z,9.07
